Hovedside
METAR-TAF:

METAR-TAF

Lufthavner :

Vientiane, Laos

breddegrad: 17-57N, lengdegrad: 102-34E, høyde over havet: 171 m

Gjeldene værobservasjon

Denne rapporten ble laget for 6 timer og 23 minutter siden, klokken 16:30 UTC
Vind 4 kt fra Sør
Temperatur 24°C
Luftfuktighet 100%
Trykk 1009 hPa
Sikt: 3000 m
Brutte skyer i en høyde av 1600 ft
Overskyet i en høyde av 8300 ft
regn

METAR: VLVT 141630Z 18004KT 3000 RA BKN016 OVC083 24/24 Q1009 NOSIG

Tid: 05:53 (22:53 UTC)

Varsel

Denne rapporten ble laget for 5 timer og 53 minutter siden, klokken 17:00 UTC
Varsel gyldig fra 14. klokken 18 UTC til 15. klokken 18 UTC
Vind 4 kt fra Sørvest
Sikt: 8000 m
Spredte skyer i en høyde av 1600 ft
Brutte skyer i en høyde av 8300 ft
Midlertidig
fra 14. klokken 18 UTC til 14. klokken 22 UTC
Sikt: 3000 m
Spredte skyer i en høyde av 1600 ft
Brutte skyer i en høyde av 5000 ft
lett duskregn

TAF: VLVT 141700Z 1418/1518 22004KT 8000 SCT016 BKN083 TEMPO 1418/1422 3000 -DZ SCT016 BKN050

Værobservasjoner og værvarsel for over 4000 flyplasser (METAR- og TAF-rapporter).

Tilgjengelige stasjoner er representert av de røde og gule prikkene på kartet.

Hold musepekeren over prikken for å se navnet på stasjonen.

Klikk så for å se værobservasjoner og -varsler.

For å forandre kartet kan du klikke på den grønne knappen med svart kryss for å zoome inn, på den grønne knappen med strek for å zoome ut, eller på de grønne pilene for å se tilstøtende kart.


METAR-TAF: